AirNav   Phillips 66 Aviation Fuel
 
 318 users online  

0CD2 Foxx Valley Airport
Yoder, Colorado, USA


FAA INFORMATION EFFECTIVE 20 JULY 2017

Location

FAA Identifier: 0CD2
Lat/Long: 38-39-09.0000N / 104-14-04.2000W
38-39.150000N / 104-14.070000W
38.6525000 / -104.2345000
(estimated)
Elevation: 5800 ft. / 1768 m (estimated)
From city: 14 miles S of YODER, CO
Time zone: UTC -6 (UTC -7 during Standard Time)
Zip code: 80864

Airport Operations

Airport use: Private use. Permission required prior to landing
Activation date: 05/2006
Control tower: no
ARTCC: DENVER CENTER
FSS: DENVER FLIGHT SERVICE STATION
Attendance: UNATNDD
Wind indicator: yes
Segmented circle: no

Airport Communications

WX ASOS at CO90 (7 nm NW): 121.425 (719-683-3346)

Nearby radio navigation aids

VOR radial/distance  VOR name  Freq  Var
PUBr015/23.4PUEBLO VORTAC116.7008E
FCSr082/24.5BUTTS VOR/DME108.8012E
BRKr125/25.6BLACK FOREST VOR/DME112.5008E
HGOr244/30.4HUGO VOR/DME112.1007E

 
NDB name  Hdg/Dist  Freq  Var  ID
IRONHORSE082/24.433512EIHS .. .... ...

Airport Services

Runway Information

Runway 17/35

Dimensions: 5000 x 100 ft. / 1524 x 30 m
Surface: turf, in fair condition
RUNWAY 17  RUNWAY 35
Traffic pattern: leftleft
Obstructions: 5 ft. fence, marked, 30 ft. from runway30 ft. pline, marked, 250 ft. from runway

Runway 8/26

Dimensions: 2500 x 50 ft. / 762 x 15 m
Surface: turf, in poor condition
RUNWAY 8  RUNWAY 26
Traffic pattern: leftleft
Obstructions: 30 ft. pline, 110 ft. from runway5 ft. fence, marked, 30 ft. from runway

Airport Ownership and Management from official FAA records

Ownership: Privately-owned
Owner: ROBERT LEE WILSON
12575 SOUTH LAUPPE ROAD
YODER, CO 80864
Phone 719-478-2323
Manager: ROBERT LEE WILSON
12575 SOUTH LAUPPE ROAD
YODER, CO 80864
Phone 719-478-2323

Airport Operational Statistics

Aircraft based on the field: 1
Single engine airplanes: 1
    

Additional Remarks

OWNER DESIRES CHARTING.

Instrument Procedures

There are no published instrument procedures at 0CD2.

Some nearby airports with instrument procedures:

KCOS - City of Colorado Springs Municipal Airport (24 nm NW)
KPUB - Pueblo Memorial Airport (25 nm SW)
1V6 - Fremont County Airport (43 nm W)
KLHX - La Junta Municipal Airport (50 nm SE)
KAPA - Centennial Airport (62 nm NW)
 
Loc | Ops | Rwys | IFR | FBO | Links
Com | Nav | Svcs | Stats | Notes


 
Area around 0CD2 (Foxx Valley Airport)
 
Road maps at: MapQuest Bing Google
 
Aerial photo
No photo
 
Sectional chart

 
Airport distance calculator
Flying to Foxx Valley Airport? Find the distance to fly.

From to 0CD2

Sunrise and sunset
Times for 24-Jul-2017
 Local
(UTC-6)
 Zulu
(UTC)
Morning civil twilight05:2211:22
Sunrise05:5311:53
Sunset20:1402:14
Evening civil twilight20:4402:44

Current date and time
Zulu (UTC)  24-Jul-2017 06:48:52
Local (UTC-6)  24-Jul-2017 00:48:52
 
METAR
KFLY 
24nm NW 
240635Z AUTO 19004KT 10SM 17/12 A3033 RMK AO2 T01670117
KCOS 
25nm NW 
240554Z 16005KT 10SM FEW200 21/13 A3028 RMK AO2 SLP156 T02060133 10278 20206 51013
KFCS 
25nm W 
240558Z AUTO 00000KT 10SM CLR 22/12 A3024 RMK AO2 SLP173 T02190123 10293 20219 50012 $
KPUB 
25nm SW 
240553Z AUTO 09007KT 10SM CLR 23/13 A3014 RMK AO2 SLP131 T02280128 10333 20228 50012
KAFF 
33nm NW 
240558Z AUTO 14008KT 10SM CLR 18/12 A3029 RMK AO2 SLP158 T01840116 10252 20184 51011
KMNH 
39nm NW 
240628Z AUTO 18014G20KT 10SM CLR 17/12 A3032 RMK AO2
KLIC 
45nm NE 
240555Z AUTO 15008KT 10SM CLR 18/13 A3020 RMK AO2 SLP148 T01780133 10272 20167 50009
TAF
KCOS 
25nm NW 
240520Z 2406/2506 06006KT P6SM FEW200 FM241600 15008KT P6SM FEW100 SCT200 FM242100 17014KT P6SM VCTS SCT090CB BKN200 FM250200 35009KT P6SM SCT100 SCT200
KFCS 
25nm W 
240500Z 2405/2511 20009KT 9999 FEW250 QNH3016INS BECMG 2414/2415 20012KT 9999 FEW090 SCT250 QNH3008INS TEMPO 2421/2424 VRB15G25KT VCTS SCT080CB BECMG 2501/2502 19009KT 9999 SCT150 QNH3009INS TX29/2421Z TN18/2412Z
KPUB 
25nm SW 
240520Z 2406/2506 VRB06KT P6SM FEW200 FM241600 16008KT P6SM SKC FM242100 14012KT P6SM SCT120 SCT200
NOTAMs
Click for the latest NOTAMs
NOTAMs are issued by the DoD/FAA and will open in a separate window not controlled by AirNav.

 

 
 

Would you like to see your business listed on this page?

 If your business provides an interesting product or service to pilots, flight crews, aircraft, or users of the Foxx Valley Airport, you should consider listing it here.  To start the listing process, click on the button below
 
Add a business
 

Other Pages about Foxx Valley Airport

Update a link
 
Copyright © AirNav, LLC. All rights reserved. Privacy Policy  Contact